Manistique, MI

7:20 PM EST on February 06, 2016 (GMT -0500)
Schoolcraft County

Weather History for KISQ - August, 2014

Change the Weather History Date:

Tuesday, August 19, 2014

  Actual Average Record
Temperature  
Mean Temperature 64 °F -  
Max Temperature 68 °F 72 °F 101 °F (1955)
Min Temperature 60 °F 52 °F 40 °F (1957)
Degree Days  
Heating Degree Days 1    
Growing Degree Days 14 (Base 50)    
Moisture  
Dew Point 62 °F    
Average Humidity 97    
Maximum Humidity 100    
Minimum Humidity 88    
Precipitation  
Precipitation 0.48 in - - ()
Sea Level Pressure  
Sea Level Pressure 29.68 in    
Wind  
Wind Speed 5 mph (SE)    
Max Wind Speed 8 mph    
Max Gust Speed -    
Visibility 4 miles    
Events Fog , Rain    
Averages and records for this station are not official NWS values.
T = Trace of Precipitation, MM = Missing Value Source: NWS Daily Summary

Daily Weather History Graph

Daily Weather History Graph

Search for Another Location

Airport or City:

Trip Planner

Search our weather history database for the weather conditions in past years. The results will help you decide how hot, cold, wet, or windy it might be!

Date:

Astronomy

Aug. 19, 2014 Rise Set
Actual Time 6:49 AM EDT 8:46 PM EDT
Civil Twilight 6:17 AM EDT 9:18 PM EDT
Nautical Twilight 5:37 AM EDT 9:57 PM EDT
Astronomical Twilight 4:53 AM EDT 10:41 PM EDT
Moon 1:35 AM EDT (8/19) 4:48 PM EDT (8/19)
Length of Visible Light 15h 01m
Length of Day
13h 57m
Waning Crescent, 29% of the Moon is Illuminated
Aug 19
Waning Crescent
Aug 25
New
Sep 2
First Quarter
Sep 8
Full
Sep 15
Last Quarter

Hourly Weather History & Observations

Time (EDT) Temp. Dew Point Humidity Pressure Visibility Wind Dir Wind Speed Gust Speed Precip Events Conditions
12:14 AM 61.0 °F 60.3 °F 97% 29.74 in 10.0 mi ESE 3.5 mph - N/A   Overcast
12:34 AM 61.7 °F 60.8 °F 97% 29.74 in 10.0 mi ESE 5.8 mph - N/A   Overcast
12:55 AM 61.7 °F 60.8 °F 97% 29.74 in 10.0 mi ESE 6.9 mph - N/A   Overcast
1:14 AM 61.0 °F 60.3 °F 97% 29.73 in 7.0 mi ESE 6.9 mph - N/A   Overcast
1:34 AM 61.0 °F 60.3 °F 97% 29.72 in 7.0 mi ESE 6.9 mph - N/A   Overcast
1:55 AM 61.3 °F 60.6 °F 97% 29.72 in 7.0 mi ESE 6.9 mph - N/A   Overcast
2:14 AM 61.2 °F 60.3 °F 97% 29.71 in 10.0 mi ESE 8.1 mph - N/A   Overcast
2:34 AM 61.3 °F 60.4 °F 97% 29.70 in 10.0 mi ESE 8.1 mph - N/A   Overcast
2:54 AM 61.3 °F 60.6 °F 97% 29.70 in 7.0 mi SE 6.9 mph - N/A   Overcast
3:14 AM 61.7 °F 61.0 °F 97% 29.70 in 7.0 mi SE 5.8 mph - N/A   Overcast
3:35 AM 63.0 °F 62.2 °F 97% 29.70 in 7.0 mi South 6.9 mph - N/A   Overcast
3:54 AM 63.3 °F 62.6 °F 97% 29.69 in 10.0 mi SSE 6.9 mph - N/A   Overcast
4:14 AM 63.5 °F 62.6 °F 97% 29.68 in 10.0 mi SSE 6.9 mph - N/A   Overcast
4:35 AM 63.1 °F 62.2 °F 97% 29.68 in 7.0 mi SSE 5.8 mph - N/A   Overcast
4:54 AM 63.0 °F 62.2 °F 97% 29.68 in 7.0 mi SSE 6.9 mph - N/A   Overcast
5:14 AM 63.0 °F 62.4 °F 98% 29.68 in 5.0 mi SSE 5.8 mph - N/A   Overcast
5:34 AM 63.0 °F 62.6 °F 99% 29.68 in 4.0 mi SSE 5.8 mph - N/A   Overcast
5:54 AM 62.6 °F 62.2 °F 99% 29.68 in 3.0 mi SSE 6.9 mph - N/A   Overcast
6:15 AM 62.6 °F 62.2 °F 99% 29.68 in 2.5 mi SSE 6.9 mph - N/A   Overcast
6:34 AM 62.6 °F 62.2 °F 99% 29.67 in 3.0 mi SE 5.8 mph - N/A   Overcast
6:54 AM 62.6 °F 62.2 °F 99% 29.67 in 0.8 mi ESE 4.6 mph - N/A   Overcast
7:15 AM 61.9 °F 61.9 °F 100% 29.68 in 0.5 mi ESE 5.8 mph - N/A Fog Fog
7:34 AM 61.3 °F 61.2 °F 99% 29.68 in 1.2 mi East 6.9 mph - N/A Rain Light Rain
7:54 AM 61.3 °F 61.0 °F 99% 29.67 in 4.0 mi ESE 5.8 mph - 0.02 in Rain Heavy Rain
8:14 AM 61.3 °F 61.0 °F 99% 29.67 in 3.0 mi East 6.9 mph - 0.03 in Rain Heavy Rain
8:34 AM 61.3 °F 61.0 °F 99% 29.67 in 4.0 mi East 4.6 mph - 0.12 in Rain Light Rain
8:55 AM 61.3 °F 61.0 °F 99% 29.67 in 3.0 mi ESE 6.9 mph - 0.18 in Rain Rain
9:14 AM 61.0 °F 60.8 °F 99% 29.67 in 2.0 mi ESE 4.6 mph - 0.09 in Rain Rain
9:34 AM 61.2 °F 60.8 °F 99% 29.67 in 3.0 mi ESE 5.8 mph - 0.15 in Rain Rain
9:55 AM 61.3 °F 61.0 °F 99% 29.67 in 2.5 mi ESE 4.6 mph - 0.18 in Rain Rain
10:14 AM 61.3 °F 61.2 °F 99% 29.67 in 3.0 mi East 6.9 mph - N/A Rain Light Rain
10:34 AM 61.7 °F 61.3 °F 99% 29.68 in 3.0 mi East 5.8 mph - 0.03 in Rain Light Rain
10:55 AM 62.1 °F 61.9 °F 99% 29.67 in 3.0 mi East 5.8 mph - 0.05 in Rain Light Rain
11:14 AM 62.6 °F 62.2 °F 99% 29.68 in 2.0 mi ESE 3.5 mph - 0.01 in Rain Heavy Rain
11:35 AM 63.3 °F 63.0 °F 99% 29.67 in 4.0 mi East 5.8 mph - 0.04 in Rain Heavy Rain
11:54 AM 63.5 °F 63.0 °F 98% 29.67 in 5.0 mi ESE 3.5 mph - 0.04 in   Drizzle
12:14 PM 62.6 °F 62.1 °F 98% 29.67 in 3.0 mi ESE 3.5 mph - N/A   Drizzle
12:35 PM 63.5 °F 63.3 °F 99% 29.67 in 1.0 mi SSE 3.5 mph - N/A   Drizzle
12:54 PM 63.7 °F 63.5 °F 99% 29.66 in 1.5 mi South 3.5 mph - N/A Rain Light Rain
1:14 PM 63.9 °F 63.7 °F 99% 29.66 in 0.8 mi Calm Calm - N/A   Light Drizzle
1:35 PM 64.4 °F 64.0 °F 99% 29.66 in 1.5 mi Calm Calm - N/A   Overcast
1:54 PM 64.9 °F 64.0 °F 97% 29.66 in 7.0 mi Calm Calm - N/A   Overcast
2:15 PM 67.6 °F 65.3 °F 92% 29.66 in 10.0 mi SSW 3.5 mph - N/A   Overcast
2:34 PM 66.7 °F 64.0 °F 91% 29.67 in 10.0 mi South 3.5 mph - N/A   Overcast
2:54 PM 66.7 °F 64.6 °F 93% 29.66 in 10.0 mi South 3.5 mph - N/A   Overcast
3:14 PM 66.0 °F 64.0 °F 93% 29.66 in 10.0 mi South 4.6 mph - N/A   Overcast
3:34 PM 66.6 °F 63.7 °F 90% 29.66 in 10.0 mi South 5.8 mph - N/A   Overcast
3:50 PM 64.4 °F 63.0 °F 95% 29.67 in 3.0 mi South 3.5 mph - N/A   Overcast
4:21 PM 66.0 °F 63.9 °F 93% 29.67 in 5.0 mi South 4.6 mph - N/A   Overcast
4:34 PM 68.0 °F 64.6 °F 89% 29.66 in 10.0 mi South 5.8 mph - N/A   Overcast
4:54 PM 68.2 °F 64.4 °F 88% 29.66 in 10.0 mi South 5.8 mph - N/A   Mostly Cloudy
5:14 PM 67.1 °F 63.7 °F 89% 29.66 in 10.0 mi South 5.8 mph - N/A   Mostly Cloudy
5:34 PM 65.3 °F 63.1 °F 93% 29.67 in 5.0 mi SSE 8.1 mph - N/A   Overcast
5:55 PM 64.4 °F 62.8 °F 94% 29.67 in 1.0 mi South 5.8 mph - N/A   Overcast
6:34 PM 63.7 °F 62.6 °F 96% 29.69 in 2.0 mi SSW 3.5 mph - N/A   Overcast
6:55 PM 62.6 °F 61.7 °F 97% 29.68 in 0.5 mi South 3.5 mph - N/A Fog Fog
7:14 PM 61.9 °F 61.7 °F 99% 29.68 in 0.2 mi Calm Calm - N/A Fog Fog
7:34 PM 61.9 °F 61.7 °F 99% 29.69 in 0.2 mi Calm Calm - N/A Fog Fog
7:54 PM 61.7 °F 61.7 °F 100% 29.69 in 0.2 mi South 3.5 mph - N/A Fog Fog
8:14 PM 61.7 °F 61.5 °F 99% 29.68 in 0.2 mi Calm Calm - N/A Fog Fog
8:35 PM 61.7 °F 61.5 °F 99% 29.68 in 0.2 mi SE 4.6 mph - N/A Fog Fog
8:54 PM 61.5 °F 61.3 °F 99% 29.69 in 0.2 mi Calm Calm - N/A Rain Rain
9:14 PM 61.7 °F 61.7 °F 100% 29.70 in 0.2 mi Calm Calm - 0.01 in Rain Light Rain
9:35 PM 61.7 °F 61.7 °F 100% 29.70 in 0.5 mi ESE 8.1 mph - 0.01 in Fog Fog
9:54 PM 60.8 °F 60.8 °F 100% 29.70 in 0.5 mi ESE 6.9 mph - 0.01 in Fog Fog
10:54 PM 61.9 °F 61.9 °F 100% 29.71 in 0.8 mi Calm Calm - N/A   Overcast
11:15 PM 61.9 °F 61.9 °F 100% 29.71 in 1.8 mi East 4.6 mph - N/A   Overcast
11:34 PM 62.1 °F 62.1 °F 100% 29.71 in 0.8 mi East 4.6 mph - N/A   Overcast
11:54 PM 61.5 °F 61.5 °F 100% 29.71 in 1.2 mi East 4.6 mph - N/A Rain Rain